Time,TemperatureF,DewpointF,PressureIn,WindDirection,WindDirectionDegrees,WindSpeedMPH,WindSpeedGustMPH,Humidity,HourlyPrecipIn,Conditions,Clouds,dailyrainin,SoftwareType,DateUTC
2013-03-06 00:01:00,20.9,16.8,30.37,North,360,3.5,3.5,84,0.00,RA,,0.00,WeatherDisplay:10.37,2013-03-06 06:01:00,
2013-03-06 00:06:00,21.1,17.0,30.37,North,360,3.5,3.5,84,0.00,RA,,0.00,WeatherDisplay:10.37,2013-03-06 06:06:00,
2013-03-06 00:11:00,21.1,17.0,30.38,North,355,0.0,0.2,84,0.00,CLR,,0.00,WeatherDisplay:10.37,2013-03-06 06:11:00,
2013-03-06 00:16:00,21.1,17.0,30.38,North,355,0.0,0.0,84,0.00,CLR,,0.00,WeatherDisplay:10.37,2013-03-06 06:16:00,
2013-03-06 00:21:00,21.2,17.1,30.38,NNE,13,0.0,0.0,84,0.00,CLR,,0.00,WeatherDisplay:10.37,2013-03-06 06:21:00,
2013-03-06 00:26:00,21.3,17.2,30.38,North,360,3.5,3.5,84,0.00,CLR,,0.00,WeatherDisplay:10.37,2013-03-06 06:26:00,
2013-03-06 00:31:00,21.4,17.3,30.38,NNE,28,3.5,3.5,84,0.00,CLR,,0.00,WeatherDisplay:10.37,2013-03-06 06:31:00,
2013-03-06 00:36:00,21.4,17.3,30.38,NNE,25,0.0,0.0,84,0.00,CLR,,0.00,WeatherDisplay:10.37,2013-03-06 06:36:00,
2013-03-06 00:41:00,21.5,17.4,30.38,NNE,26,0.0,0.0,84,0.00,CLR,,0.00,WeatherDisplay:10.37,2013-03-06 06:41:00,
2013-03-06 00:46:00,21.5,17.4,30.38,NNE,26,0.0,0.0,84,0.00,CLR,,0.00,WeatherDisplay:10.37,2013-03-06 06:46:00,
2013-03-06 00:51:00,21.5,17.4,30.39,NNE,26,0.0,0.0,84,0.00,CLR,,0.00,WeatherDisplay:10.37,2013-03-06 06:51:00,
2013-03-06 00:56:00,21.5,17.4,30.39,NNE,26,0.0,0.0,84,0.00,CLR,,0.00,WeatherDisplay:10.37,2013-03-06 06:56:00,
2013-03-06 01:01:00,21.6,17.5,30.39,North,5,3.5,3.5,84,0.00,CLR,,0.00,WeatherDisplay:10.37,2013-03-06 07:01:00,
2013-03-06 01:06:00,21.6,17.5,30.39,North,360,0.0,0.0,84,0.00,CLR,,0.00,WeatherDisplay:10.37,2013-03-06 07:06:00,
2013-03-06 01:11:00,21.6,17.5,30.39,North,5,0.0,0.0,84,0.00,CLR,,0.00,WeatherDisplay:10.37,2013-03-06 07:11:00,
2013-03-06 01:16:00,21.7,17.6,30.40,North,5,0.0,0.0,84,0.00,CLR,,0.00,WeatherDisplay:10.37,2013-03-06 07:16:00,
2013-03-06 01:21:00,21.6,17.5,30.40,North,360,0.0,0.0,84,0.00,CLR,,0.00,WeatherDisplay:10.37,2013-03-06 07:21:00,
2013-03-06 01:26:00,21.6,17.5,30.40,North,5,0.0,0.0,84,0.00,CLR,,0.00,WeatherDisplay:10.37,2013-03-06 07:26:00,
2013-03-06 01:31:00,21.6,17.5,30.41,North,360,0.0,0.0,84,0.00,CLR,,0.00,WeatherDisplay:10.37,2013-03-06 07:31:00,
2013-03-06 01:36:00,21.6,17.5,30.41,North,351,0.0,0.0,84,0.00,CLR,,0.00,WeatherDisplay:10.37,2013-03-06 07:36:00,
2013-03-06 01:41:00,21.6,17.5,30.41,NW,319,3.5,0.0,84,0.00,CLR,,0.00,WeatherDisplay:10.37,2013-03-06 07:41:00,
2013-03-06 01:46:00,21.6,17.5,30.41,NW,318,3.5,3.5,84,0.00,CLR,,0.00,WeatherDisplay:10.37,2013-03-06 07:46:00,
2013-03-06 01:51:00,21.7,17.6,30.41,WNW,301,3.5,3.5,84,0.00,CLR,,0.00,WeatherDisplay:10.37,2013-03-06 07:51:00,
2013-03-06 01:56:00,21.7,17.6,30.42,NW,308,4.6,0.0,84,0.00,CLR,,0.00,WeatherDisplay:10.37,2013-03-06 07:56:00,
2013-03-06 02:01:00,21.7,17.6,30.42,NW,313,4.0,4.0,84,0.00,CLR,,0.00,WeatherDisplay:10.37,2013-03-06 08:01:00,
2013-03-06 02:06:00,21.7,17.6,30.42,NW,309,2.3,0.0,84,0.00,CLR,,0.00,WeatherDisplay:10.37,2013-03-06 08:06:00,
2013-03-06 02:12:00,21.8,17.7,30.42,NW,313,3.5,3.5,84,0.00,CLR,,0.00,WeatherDisplay:10.37,2013-03-06 08:12:00,
2013-03-06 02:17:00,21.8,17.7,30.42,NW,308,3.5,3.5,84,0.00,CLR,,0.00,WeatherDisplay:10.37,2013-03-06 08:17:00,
2013-03-06 02:22:00,21.9,17.8,30.42,NW,317,4.6,4.6,84,0.00,CLR,,0.00,WeatherDisplay:10.37,2013-03-06 08:22:00,
2013-03-06 02:27:00,21.9,17.8,30.42,NW,315,5.8,5.8,84,0.00,CLR,,0.00,WeatherDisplay:10.37,2013-03-06 08:27:00,
2013-03-06 02:32:00,22.0,17.9,30.42,NW,315,4.6,4.6,84,0.00,CLR,,0.00,WeatherDisplay:10.37,2013-03-06 08:32:00,
2013-03-06 02:37:00,22.0,17.9,30.41,NW,315,3.5,3.5,84,0.00,CLR,,0.00,WeatherDisplay:10.37,2013-03-06 08:37:00,
2013-03-06 02:42:00,22.0,17.9,30.41,NW,314,0.0,0.8,84,0.00,CLR,,0.00,WeatherDisplay:10.37,2013-03-06 08:42:00,
2013-03-06 02:47:00,22.1,18.0,30.41,NW,316,4.6,4.6,84,0.00,CLR,,0.00,WeatherDisplay:10.37,2013-03-06 08:47:00,
2013-03-06 02:52:00,22.1,18.0,30.41,NW,318,4.6,4.6,84,0.00,CLR,,0.00,WeatherDisplay:10.37,2013-03-06 08:52:00,
2013-03-06 02:57:00,22.1,18.0,30.41,NW,320,5.8,5.8,84,0.00,CLR,,0.00,WeatherDisplay:10.37,2013-03-06 08:57:00,
2013-03-06 03:02:00,22.1,18.0,30.41,NW,320,0.0,0.0,84,0.00,CLR,,0.00,WeatherDisplay:10.37,2013-03-06 09:02:00,
2013-03-06 03:07:00,22.1,18.0,30.42,NW,320,4.0,4.0,84,0.00,CLR,,0.00,WeatherDisplay:10.37,2013-03-06 09:07:00,
2013-03-06 03:12:00,22.1,18.3,30.41,NW,318,3.5,3.5,85,0.00,CLR,,0.00,WeatherDisplay:10.37,2013-03-06 09:12:00,
2013-03-06 03:17:00,22.1,18.3,30.42,NW,321,4.6,4.6,85,0.00,CLR,,0.00,WeatherDisplay:10.37,2013-03-06 09:17:00,
2013-03-06 03:22:00,22.1,18.0,30.41,NW,323,3.5,3.5,84,0.00,CLR,,0.00,WeatherDisplay:10.37,2013-03-06 09:22:00,
2013-03-06 03:27:00,22.0,17.9,30.42,NW,323,2.3,0.0,84,0.00,CLR,,0.00,WeatherDisplay:10.37,2013-03-06 09:27:00,
2013-03-06 03:32:00,22.1,18.0,30.42,NW,306,11.5,11.5,84,0.00,CLR,,0.00,WeatherDisplay:10.37,2013-03-06 09:32:00,
2013-03-06 03:37:00,22.1,18.0,30.42,North,5,6.9,6.9,84,0.00,CLR,,0.00,WeatherDisplay:10.37,2013-03-06 09:37:00,
2013-03-06 03:42:00,22.0,17.6,30.42,North,5,4.6,4.6,83,0.00,CLR,,0.00,WeatherDisplay:10.37,2013-03-06 09:42:00,
2013-03-06 03:47:00,21.9,17.2,30.42,NNW,346,11.5,11.5,82,0.00,CLR,,0.00,WeatherDisplay:10.37,2013-03-06 09:47:00,
2013-03-06 03:52:00,21.6,17.0,30.42,North,349,11.5,11.5,82,0.00,CLR,,0.00,WeatherDisplay:10.37,2013-03-06 09:52:00,
2013-03-06 03:57:00,21.5,16.9,30.42,North,360,5.8,5.8,82,0.00,CLR,,0.00,WeatherDisplay:10.37,2013-03-06 09:57:00,
2013-03-06 04:02:00,21.3,16.7,30.42,NNW,335,6.9,6.9,82,0.00,CLR,,0.00,WeatherDisplay:10.37,2013-03-06 10:02:00,
2013-03-06 04:07:00,21.1,16.5,30.42,NNW,345,11.5,11.5,82,0.00,CLR,,0.00,WeatherDisplay:10.37,2013-03-06 10:07:00,
2013-03-06 04:12:00,21.0,16.4,30.42,NNW,347,3.5,3.5,82,0.00,CLR,,0.00,WeatherDisplay:10.37,2013-03-06 10:12:00,
2013-03-06 04:17:00,20.8,16.2,30.43,NW,323,11.5,11.5,82,0.00,CLR,,0.00,WeatherDisplay:10.37,2013-03-06 10:17:00,
2013-03-06 04:22:00,20.6,16.0,30.43,NNW,331,11.5,11.5,82,0.00,CLR,,0.00,WeatherDisplay:10.37,2013-03-06 10:22:00,
2013-03-06 04:27:00,20.4,15.8,30.43,NNE,14,4.6,4.6,82,0.00,CLR,,0.00,WeatherDisplay:10.37,2013-03-06 10:27:00,
2013-03-06 04:32:00,20.3,15.7,30.43,NNW,341,4.0,4.0,82,0.00,CLR,,0.00,WeatherDisplay:10.37,2013-03-06 10:32:00,
2013-03-06 04:37:00,20.3,15.7,30.43,North,349,7.0,7.0,82,0.00,CLR,,0.00,WeatherDisplay:10.37,2013-03-06 10:37:00,
2013-03-06 04:42:00,20.4,15.8,30.43,North,355,8.1,8.1,82,0.00,CLR,,0.00,WeatherDisplay:10.37,2013-03-06 10:42:00,
2013-03-06 04:47:00,20.4,15.5,30.44,NNE,18,4.6,4.6,81,0.00,CLR,,0.00,WeatherDisplay:10.37,2013-03-06 10:47:00,
2013-03-06 04:52:00,20.4,15.5,30.43,NNW,344,6.9,6.9,81,0.00,CLR,,0.00,WeatherDisplay:10.37,2013-03-06 10:52:00,
2013-03-06 04:57:00,20.3,15.4,30.44,NNW,334,8.1,8.1,81,0.00,CLR,,0.00,WeatherDisplay:10.37,2013-03-06 10:57:00,
2013-03-06 05:02:00,20.2,15.3,30.44,NNW,346,6.9,6.9,81,0.00,CLR,,0.00,WeatherDisplay:10.37,2013-03-06 11:02:00,
2013-03-06 05:07:00,20.0,15.1,30.44,NNW,339,5.8,5.8,81,0.00,CLR,,0.00,WeatherDisplay:10.37,2013-03-06 11:07:00,
2013-03-06 05:12:00,20.0,15.4,30.44,NNE,26,5.8,5.8,82,0.00,CLR,,0.00,WeatherDisplay:10.37,2013-03-06 11:12:00,
2013-03-06 05:17:00,19.8,15.2,30.44,NW,323,5.8,5.8,82,0.00,CLR,,0.00,WeatherDisplay:10.37,2013-03-06 11:17:00,
2013-03-06 05:22:00,19.7,15.1,30.44,North,351,4.6,4.6,82,0.00,CLR,,0.00,WeatherDisplay:10.37,2013-03-06 11:22:00,
2013-03-06 05:27:00,19.7,15.1,30.45,NNW,336,3.5,3.5,82,0.00,CLR,,0.00,WeatherDisplay:10.37,2013-03-06 11:27:00,
2013-03-06 05:32:00,19.7,15.4,30.45,NNW,338,11.5,11.5,83,0.00,CLR,,0.00,WeatherDisplay:10.37,2013-03-06 11:32:00,
2013-03-06 05:37:00,19.7,15.1,30.45,North,11,3.5,3.5,82,0.00,CLR,,0.00,WeatherDisplay:10.37,2013-03-06 11:37:00,
2013-03-06 05:42:00,19.7,15.1,30.45,North,5,5.8,5.8,82,0.00,CLR,,0.00,WeatherDisplay:10.37,2013-03-06 11:42:00,
2013-03-06 05:47:00,19.8,15.2,30.46,NNW,333,4.6,4.6,82,0.00,CLR,,0.00,WeatherDisplay:10.37,2013-03-06 11:47:00,
2013-03-06 05:52:00,19.8,15.2,30.46,NNW,346,4.6,4.6,82,0.00,CLR,,0.00,WeatherDisplay:10.37,2013-03-06 11:52:00,
2013-03-06 05:57:00,19.9,15.3,30.46,NNW,347,0.0,0.0,82,0.00,CLR,,0.00,WeatherDisplay:10.37,2013-03-06 11:57:00,
2013-03-06 06:02:00,19.9,15.3,30.46,NNW,331,3.5,3.5,82,0.00,CLR,,0.00,WeatherDisplay:10.37,2013-03-06 12:02:00,
2013-03-06 06:07:00,20.0,15.4,30.46,NNW,332,3.5,3.5,82,0.00,CLR,,0.00,WeatherDisplay:10.37,2013-03-06 12:07:00,
2013-03-06 06:12:00,20.0,15.4,30.46,NW,325,5.0,5.0,82,0.00,CLR,,0.00,WeatherDisplay:10.37,2013-03-06 12:12:00,
2013-03-06 06:17:00,20.1,15.5,30.46,NNW,329,3.5,3.5,82,0.00,CLR,,0.00,WeatherDisplay:10.37,2013-03-06 12:17:00,
2013-03-06 06:22:00,20.1,15.5,30.47,NW,323,4.6,4.6,82,0.00,CLR,,0.00,WeatherDisplay:10.37,2013-03-06 12:22:00,
2013-03-06 06:27:00,20.1,15.5,30.47,NNW,337,2.3,2.3,82,0.00,CLR,,0.00,WeatherDisplay:10.37,2013-03-06 12:27:00,
2013-03-06 06:32:00,20.2,15.3,30.46,NNW,332,4.6,4.6,81,0.00,CLR,,0.00,WeatherDisplay:10.37,2013-03-06 12:32:00,
2013-03-06 06:37:00,20.3,15.4,30.47,North,349,6.9,6.9,81,0.00,CLR,,0.00,WeatherDisplay:10.37,2013-03-06 12:37:00,
2013-03-06 06:42:00,20.3,15.4,30.47,North,355,5.8,5.8,81,0.00,CLR,,0.00,WeatherDisplay:10.37,2013-03-06 12:42:00,
2013-03-06 06:47:00,20.3,15.4,30.47,North,355,4.6,4.6,81,0.00,CLR,,0.00,WeatherDisplay:10.37,2013-03-06 12:47:00,
2013-03-06 06:52:00,20.3,15.4,30.47,North,349,3.5,3.5,81,0.00,CLR,,0.00,WeatherDisplay:10.37,2013-03-06 12:52:00,
2013-03-06 06:57:00,20.3,15.4,30.48,NNW,331,3.5,3.5,81,0.00,CLR,,0.00,WeatherDisplay:10.37,2013-03-06 12:57:00,
2013-03-06 07:02:00,20.4,15.5,30.48,North,360,5.8,5.8,81,0.00,CLR,,0.00,WeatherDisplay:10.37,2013-03-06 13:02:00,
2013-03-06 07:07:00,20.3,15.4,30.48,North,5,3.5,3.5,81,0.00,CLR,,0.00,WeatherDisplay:10.37,2013-03-06 13:07:00,
2013-03-06 07:12:00,20.3,15.4,30.48,NNW,348,4.6,4.6,81,0.00,CLR,,0.00,WeatherDisplay:10.37,2013-03-06 13:12:00,
2013-03-06 07:17:00,20.3,15.1,30.48,North,5,5.8,5.8,80,0.00,CLR,,0.00,WeatherDisplay:10.37,2013-03-06 13:17:00,
2013-03-06 07:22:00,20.3,15.1,30.48,North,360,3.5,3.5,80,0.00,CLR,,0.00,WeatherDisplay:10.37,2013-03-06 13:22:00,
2013-03-06 07:27:00,20.2,14.7,30.48,NNW,344,8.1,8.1,79,0.00,CLR,,0.00,WeatherDisplay:10.37,2013-03-06 13:27:00,
2013-03-06 07:32:00,20.2,14.7,30.48,NNW,348,6.9,6.9,79,0.00,CLR,,0.00,WeatherDisplay:10.37,2013-03-06 13:32:00,
2013-03-06 07:37:00,20.2,14.7,30.48,North,9,6.9,6.9,79,0.00,CLR,,0.00,WeatherDisplay:10.37,2013-03-06 13:37:00,
2013-03-06 07:42:00,20.2,14.7,30.48,North,5,9.2,9.2,79,0.00,CLR,,0.00,WeatherDisplay:10.37,2013-03-06 13:42:00,
2013-03-06 07:47:00,20.3,15.1,30.48,NNE,24,4.6,4.6,80,0.00,CLR,,0.00,WeatherDisplay:10.37,2013-03-06 13:47:00,
2013-03-06 07:52:00,20.4,15.2,30.48,NNE,32,3.5,3.5,80,0.00,CLR,,0.00,WeatherDisplay:10.37,2013-03-06 13:52:00,
2013-03-06 07:57:00,20.4,15.2,30.48,North,351,0.0,0.3,80,0.00,CLR,,0.00,WeatherDisplay:10.37,2013-03-06 13:57:00,
2013-03-06 08:02:00,20.4,15.2,30.48,North,350,5.8,5.8,80,0.00,CLR,,0.00,WeatherDisplay:10.37,2013-03-06 14:02:00,
2013-03-06 08:07:00,20.4,15.2,30.49,North,360,6.0,6.0,80,0.00,CLR,,0.00,WeatherDisplay:10.37,2013-03-06 14:07:00,
2013-03-06 08:12:00,20.4,14.9,30.49,NNW,348,6.9,6.9,79,0.00,CLR,,0.00,WeatherDisplay:10.37,2013-03-06 14:12:00,
2013-03-06 08:17:00,20.4,15.2,30.49,North,10,4.6,4.6,80,0.00,CLR,,0.00,WeatherDisplay:10.37,2013-03-06 14:17:00,
2013-03-06 08:22:00,20.4,14.9,30.49,NNW,333,6.9,6.9,79,0.00,CLR,,0.00,WeatherDisplay:10.37,2013-03-06 14:22:00,
2013-03-06 08:27:00,20.4,14.9,30.49,North,5,4.6,4.6,79,0.00,CLR,,0.00,WeatherDisplay:10.37,2013-03-06 14:27:00,
2013-03-06 08:32:00,20.5,15.0,30.49,North,360,3.5,3.5,79,0.00,CLR,,0.00,WeatherDisplay:10.37,2013-03-06 14:32:00,
2013-03-06 08:37:00,20.6,15.1,30.49,NNW,336,3.5,3.5,79,0.00,CLR,,0.00,WeatherDisplay:10.37,2013-03-06 14:37:00,
2013-03-06 08:42:00,20.6,15.1,30.49,North,5,0.0,0.0,79,0.00,CLR,,0.00,WeatherDisplay:10.37,2013-03-06 14:42:00,
2013-03-06 08:47:00,20.8,15.3,30.49,North,360,4.6,4.6,79,0.00,CLR,,0.00,WeatherDisplay:10.37,2013-03-06 14:47:00,
2013-03-06 08:52:00,20.9,15.4,30.49,North,360,3.5,0.0,79,0.00,CLR,,0.00,WeatherDisplay:10.37,2013-03-06 14:52:00,
2013-03-06 08:57:00,20.9,15.4,30.49,NNW,346,3.5,3.5,79,0.00,CLR,,0.00,WeatherDisplay:10.37,2013-03-06 14:57:00,
2013-03-06 09:02:00,21.0,15.5,30.49,NNW,342,0.0,0.2,79,0.00,CLR,,0.00,WeatherDisplay:10.37,2013-03-06 15:02:00,
2013-03-06 09:07:00,21.1,15.6,30.49,NNW,340,3.5,3.5,79,0.00,CLR,,0.00,WeatherDisplay:10.37,2013-03-06 15:07:00,
2013-03-06 09:12:00,21.1,15.6,30.49,North,355,3.5,0.0,79,0.00,CLR,,0.00,WeatherDisplay:10.37,2013-03-06 15:12:00,
2013-03-06 09:17:00,21.3,15.8,30.49,NNW,327,4.6,4.6,79,0.00,CLR,,0.00,WeatherDisplay:10.37,2013-03-06 15:17:00,
2013-03-06 09:22:00,21.2,15.4,30.49,NNW,327,9.2,9.2,78,0.00,CLR,,0.00,WeatherDisplay:10.37,2013-03-06 15:22:00,
2013-03-06 09:27:00,21.2,15.4,30.49,North,355,6.9,6.9,78,0.00,CLR,,0.00,WeatherDisplay:10.37,2013-03-06 15:27:00,
2013-03-06 09:32:00,21.3,15.5,30.49,NNW,345,9.2,9.2,78,0.00,CLR,,0.00,WeatherDisplay:10.37,2013-03-06 15:32:00,
2013-03-06 09:37:00,21.3,15.5,30.49,NNW,329,8.1,8.1,78,0.00,CLR,,0.00,WeatherDisplay:10.37,2013-03-06 15:37:00,
2013-03-06 09:42:00,21.4,15.6,30.50,NW,324,7.0,7.0,78,0.00,CLR,,0.00,WeatherDisplay:10.37,2013-03-06 15:42:00,
2013-03-06 09:47:00,21.5,15.7,30.49,NNW,337,6.9,6.9,78,0.00,CLR,,0.00,WeatherDisplay:10.37,2013-03-06 15:47:00,
2013-03-06 09:53:00,21.4,15.3,30.49,NE,34,6.9,6.9,77,0.00,CLR,,0.00,WeatherDisplay:10.37,2013-03-06 15:53:00,
2013-03-06 09:58:00,21.5,15.7,30.49,North,5,7.0,7.0,78,0.00,CLR,,0.00,WeatherDisplay:10.37,2013-03-06 15:58:00,
2013-03-06 10:03:00,21.7,15.6,30.49,North,360,6.9,6.9,77,0.00,CLR,,0.00,WeatherDisplay:10.37,2013-03-06 16:03:00,
2013-03-06 10:08:00,21.9,15.8,30.49,NNE,26,5.8,5.8,77,0.00,CLR,,0.00,WeatherDisplay:10.37,2013-03-06 16:08:00,
2013-03-06 10:13:00,22.1,16.0,30.49,NNW,327,4.0,4.0,77,0.00,CLR,,0.00,WeatherDisplay:10.37,2013-03-06 16:13:00,
2013-03-06 10:18:00,22.4,16.3,30.49,ENE,69,4.6,4.6,77,0.00,CLR,,0.00,WeatherDisplay:10.37,2013-03-06 16:18:00,
2013-03-06 10:23:00,22.7,16.6,30.48,NNE,23,3.5,3.5,77,0.00,CLR,,0.00,WeatherDisplay:10.37,2013-03-06 16:23:00,
2013-03-06 10:28:00,22.8,16.4,30.49,NNW,346,3.5,3.5,76,0.00,CLR,,0.00,WeatherDisplay:10.37,2013-03-06 16:28:00,
2013-03-06 10:33:00,22.6,16.2,30.48,NW,320,6.9,6.9,76,0.00,CLR,,0.00,WeatherDisplay:10.37,2013-03-06 16:33:00,
2013-03-06 10:38:00,22.6,16.5,30.48,NNE,28,5.8,5.8,77,0.00,CLR,,0.00,WeatherDisplay:10.37,2013-03-06 16:38:00,
2013-03-06 10:43:00,22.7,16.3,30.48,NNW,329,10.4,10.4,76,0.00,CLR,,0.00,WeatherDisplay:10.37,2013-03-06 16:43:00,
2013-03-06 10:48:00,22.6,15.9,30.48,NW,319,5.8,5.8,75,0.00,CLR,,0.00,WeatherDisplay:10.37,2013-03-06 16:48:00,
2013-03-06 10:53:00,22.8,16.1,30.48,NW,325,5.8,5.8,75,0.00,CLR,,0.00,WeatherDisplay:10.37,2013-03-06 16:53:00,
2013-03-06 10:58:00,22.9,16.2,30.48,NE,34,4.6,0.0,75,0.00,CLR,,0.00,WeatherDisplay:10.37,2013-03-06 16:58:00,
2013-03-06 11:03:00,23.2,16.4,30.48,NNE,22,6.9,6.9,75,0.00,CLR,,0.00,WeatherDisplay:10.37,2013-03-06 17:03:00,
2013-03-06 11:08:00,23.3,16.2,30.48,NNW,333,4.6,4.6,74,0.00,CLR,,0.00,WeatherDisplay:10.37,2013-03-06 17:08:00,
2013-03-06 11:13:00,23.3,16.2,30.48,North,355,5.8,5.8,74,0.00,CLR,,0.00,WeatherDisplay:10.37,2013-03-06 17:13:00,
2013-03-06 11:18:00,23.5,16.7,30.48,NNW,345,3.5,3.5,75,0.00,CLR,,0.00,WeatherDisplay:10.37,2013-03-06 17:18:00,
2013-03-06 11:23:00,23.8,16.7,30.48,North,360,5.8,5.8,74,0.00,CLR,,0.00,WeatherDisplay:10.37,2013-03-06 17:23:00,
2013-03-06 11:28:00,23.8,16.7,30.48,WNW,302,6.9,6.9,74,0.00,CLR,,0.00,WeatherDisplay:10.37,2013-03-06 17:28:00,
2013-03-06 11:33:00,23.5,16.1,30.48,NW,325,9.2,9.2,73,0.00,CLR,,0.00,WeatherDisplay:10.37,2013-03-06 17:33:00,
2013-03-06 11:38:00,23.6,16.5,30.48,North,351,6.9,6.9,74,0.00,CLR,,0.00,WeatherDisplay:10.37,2013-03-06 17:38:00,
2013-03-06 11:43:00,23.9,16.8,30.48,North,5,4.6,4.6,74,0.00,CLR,,0.00,WeatherDisplay:10.37,2013-03-06 17:43:00,
2013-03-06 11:48:00,23.8,16.4,30.48,NNW,344,3.5,3.5,73,0.00,CLR,,0.00,WeatherDisplay:10.37,2013-03-06 17:48:00,
2013-03-06 11:53:00,24.1,16.7,30.48,NNW,345,3.5,3.5,73,0.00,CLR,,0.00,WeatherDisplay:10.37,2013-03-06 17:53:00,
2013-03-06 11:58:00,24.0,16.6,30.48,NW,317,4.6,4.6,73,0.00,CLR,,0.00,WeatherDisplay:10.37,2013-03-06 17:58:00,
2013-03-06 12:03:00,24.3,17.2,30.47,NNW,336,3.5,3.5,74,0.00,CLR,,0.00,WeatherDisplay:10.37,2013-03-06 18:03:00,
2013-03-06 12:08:00,24.4,16.7,30.47,NW,325,5.8,5.8,72,0.00,CLR,,0.00,WeatherDisplay:10.37,2013-03-06 18:08:00,
2013-03-06 12:13:00,24.2,16.8,30.47,North,355,4.6,4.6,73,0.00,CLR,,0.00,WeatherDisplay:10.37,2013-03-06 18:13:00,
2013-03-06 12:18:00,24.4,17.0,30.47,NE,40,0.0,0.0,73,0.00,CLR,,0.00,WeatherDisplay:10.37,2013-03-06 18:18:00,
2013-03-06 12:23:00,24.6,16.9,30.47,North,349,0.0,0.0,72,0.00,CLR,,0.00,WeatherDisplay:10.37,2013-03-06 18:23:00,
2013-03-06 12:28:00,24.7,17.3,30.47,NW,307,0.0,0.0,73,0.00,CLR,,0.00,WeatherDisplay:10.37,2013-03-06 18:28:00,
2013-03-06 12:33:00,24.8,17.1,30.47,NW,322,5.8,5.8,72,0.00,CLR,,0.00,WeatherDisplay:10.37,2013-03-06 18:33:00,
2013-03-06 12:38:00,24.7,17.0,30.47,NNW,344,1.2,0.0,72,0.00,CLR,,0.00,WeatherDisplay:10.37,2013-03-06 18:38:00,
2013-03-06 12:43:00,24.7,17.0,30.47,NNW,344,0.0,0.0,72,0.00,CLR,,0.00,WeatherDisplay:10.37,2013-03-06 18:43:00,
2013-03-06 12:48:00,25.1,17.7,30.47,WNW,300,4.0,4.0,73,0.00,CLR,,0.00,WeatherDisplay:10.37,2013-03-06 18:48:00,
2013-03-06 12:53:00,25.2,17.1,30.46,NW,326,4.6,4.6,71,0.00,CLR,,0.00,WeatherDisplay:10.37,2013-03-06 18:53:00,
2013-03-06 12:58:00,25.1,17.0,30.46,NNW,348,4.6,4.6,71,0.00,CLR,,0.00,WeatherDisplay:10.37,2013-03-06 18:58:00,
2013-03-06 13:03:00,25.2,17.4,30.46,North,351,3.5,0.0,72,0.00,CLR,,0.00,WeatherDisplay:10.37,2013-03-06 19:03:00,
2013-03-06 13:08:00,25.3,17.2,30.46,NNW,345,0.0,0.0,71,0.00,CLR,,0.00,WeatherDisplay:10.37,2013-03-06 19:08:00,
2013-03-06 13:13:00,25.2,17.1,30.46,NW,313,0.0,0.2,71,0.00,CLR,,0.00,WeatherDisplay:10.37,2013-03-06 19:13:00,
2013-03-06 13:18:00,25.4,17.3,30.45,NNW,328,5.8,5.8,71,0.00,CLR,,0.00,WeatherDisplay:10.37,2013-03-06 19:18:00,
2013-03-06 13:23:00,25.7,17.6,30.45,NE,34,0.0,0.4,71,0.00,CLR,,0.00,WeatherDisplay:10.37,2013-03-06 19:23:00,
2013-03-06 13:28:00,25.8,19.3,30.45,NNW,344,3.5,3.5,76,0.00,CLR,,0.00,WeatherDisplay:10.37,2013-03-06 19:28:00,
2013-03-06 13:33:00,25.5,17.1,30.45,NNW,331,4.6,4.6,70,0.00,CLR,,0.00,WeatherDisplay:10.37,2013-03-06 19:33:00,
2013-03-06 13:38:00,25.3,17.2,30.45,NW,322,3.0,3.0,71,0.01,RA,,0.01,WeatherDisplay:10.37,2013-03-06 19:38:00,
2013-03-06 13:43:00,25.6,17.5,30.45,NNW,327,3.5,3.5,71,0.01,RA,,0.01,WeatherDisplay:10.37,2013-03-06 19:43:00,
2013-03-06 13:48:00,25.6,16.8,30.44,West,272,3.5,3.5,69,0.01,CLR,,0.01,WeatherDisplay:10.37,2013-03-06 19:48:00,
2013-03-06 13:53:00,26.0,18.2,30.44,NW,326,2.0,2.0,72,0.01,CLR,,0.01,WeatherDisplay:10.37,2013-03-06 19:53:00,
2013-03-06 13:58:00,25.9,17.5,30.44,NW,317,4.6,4.6,70,0.01,CLR,,0.01,WeatherDisplay:10.37,2013-03-06 19:58:00,
2013-03-06 14:03:00,25.8,17.4,30.44,NW,317,0.0,0.0,70,0.01,CLR,,0.02,WeatherDisplay:10.37,2013-03-06 20:03:00,
2013-03-06 14:08:00,26.1,17.6,30.44,West,276,0.0,0.0,70,0.02,RA,,0.02,WeatherDisplay:10.37,2013-03-06 20:08:00,
2013-03-06 14:13:00,26.3,17.5,30.44,WSW,246,4.6,4.6,69,0.02,RA,,0.02,WeatherDisplay:10.37,2013-03-06 20:13:00,
2013-03-06 14:18:00,26.3,17.5,30.44,NNW,335,2.3,2.3,69,0.03,RA,,0.03,WeatherDisplay:10.37,2013-03-06 20:18:00,
2013-03-06 14:23:00,26.4,17.9,30.43,NNW,334,3.5,0.0,70,0.03,RA,,0.03,WeatherDisplay:10.37,2013-03-06 20:23:00,
2013-03-06 14:28:00,26.5,17.7,30.43,NW,317,1.2,0.0,69,0.03,,,0.03,WeatherDisplay:10.37,2013-03-06 20:28:00,
2013-03-06 14:33:00,26.9,18.1,30.43,NNW,338,0.0,0.0,69,0.03,CLR,,0.03,WeatherDisplay:10.37,2013-03-06 20:33:00,
2013-03-06 14:39:00,26.7,17.9,30.43,NW,311,0.0,0.0,69,0.02,CLR,,0.04,WeatherDisplay:10.37,2013-03-06 20:39:00,
2013-03-06 14:44:00,27.0,17.8,30.43,NW,326,5.8,5.8,68,0.03,RA,,0.04,WeatherDisplay:10.37,2013-03-06 20:44:00,
2013-03-06 14:49:00,27.1,18.3,30.43,NNW,333,5.8,5.8,69,0.03,RA,,0.04,WeatherDisplay:10.37,2013-03-06 20:49:00,
2013-03-06 14:54:00,27.0,18.2,30.43,NNW,335,1.2,1.2,69,0.03,CLR,,0.04,WeatherDisplay:10.37,2013-03-06 20:54:00,
2013-03-06 14:59:00,26.6,17.5,30.43,NW,309,3.5,0.0,68,0.04,RA,,0.05,WeatherDisplay:10.37,2013-03-06 20:59:00,
2013-03-06 15:04:00,26.4,17.6,30.43,NNW,341,3.5,3.5,69,0.04,RA,,0.05,WeatherDisplay:10.37,2013-03-06 21:04:00,
2013-03-06 15:09:00,26.2,17.4,30.43,NNW,331,3.5,0.0,69,0.03,,,0.05,WeatherDisplay:10.37,2013-03-06 21:09:00,
2013-03-06 15:14:00,26.2,17.4,30.42,NNW,332,0.0,0.0,69,0.03,CLR,,0.05,WeatherDisplay:10.37,2013-03-06 21:14:00,
2013-03-06 15:19:00,26.2,17.4,30.42,NNW,332,0.0,0.0,69,0.02,CLR,,0.05,WeatherDisplay:10.37,2013-03-06 21:19:00,
2013-03-06 15:24:00,26.7,17.9,30.43,NNW,331,3.5,3.5,69,0.02,CLR,,0.05,WeatherDisplay:10.37,2013-03-06 21:24:00,
2013-03-06 15:29:00,27.2,18.4,30.43,NNE,15,5.8,5.8,69,0.02,CLR,,0.05,WeatherDisplay:10.37,2013-03-06 21:29:00,
2013-03-06 15:34:00,27.4,18.2,30.43,North,5,0.0,0.0,68,0.02,CLR,,0.05,WeatherDisplay:10.37,2013-03-06 21:34:00,
2013-03-06 15:39:00,27.5,18.3,30.43,NNW,346,3.5,0.0,68,0.02,CLR,,0.05,WeatherDisplay:10.37,2013-03-06 21:39:00,
2013-03-06 15:44:00,27.5,17.6,30.43,West,276,5.8,5.8,66,0.01,CLR,,0.05,WeatherDisplay:10.37,2013-03-06 21:44:00,
2013-03-06 15:49:00,27.3,17.8,30.43,WNW,299,3.5,3.5,67,0.02,RA,,0.06,WeatherDisplay:10.37,2013-03-06 21:49:00,
2013-03-06 15:54:00,27.4,17.9,30.43,WNW,299,0.0,0.0,67,0.02,RA,,0.06,WeatherDisplay:10.37,2013-03-06 21:54:00,
2013-03-06 15:59:00,27.5,17.6,30.43,NW,310,0.0,0.0,66,0.02,RA,,0.07,WeatherDisplay:10.37,2013-03-06 21:59:00,
2013-03-06 16:04:00,27.0,17.5,30.42,NW,315,0.0,0.0,67,0.02,RA,,0.07,WeatherDisplay:10.37,2013-03-06 22:04:00,
2013-03-06 16:09:00,26.7,17.6,30.42,NW,314,2.3,2.3,68,0.02,,,0.07,WeatherDisplay:10.37,2013-03-06 22:09:00,
2013-03-06 16:14:00,26.3,17.2,30.42,NW,315,3.5,3.5,68,0.02,CLR,,0.07,WeatherDisplay:10.37,2013-03-06 22:14:00,
2013-03-06 16:19:00,26.0,17.2,30.43,NW,315,0.0,0.0,69,0.02,CLR,,0.07,WeatherDisplay:10.37,2013-03-06 22:19:00,
2013-03-06 16:24:00,25.9,17.1,30.42,NW,315,0.0,0.0,69,0.02,CLR,,0.07,WeatherDisplay:10.37,2013-03-06 22:24:00,
2013-03-06 16:29:00,25.7,16.9,30.42,NW,315,2.3,2.3,69,0.02,CLR,,0.07,WeatherDisplay:10.37,2013-03-06 22:29:00,
2013-03-06 16:34:00,25.6,17.2,30.42,NW,315,0.0,0.0,70,0.02,CLR,,0.07,WeatherDisplay:10.37,2013-03-06 22:34:00,
2013-03-06 16:39:00,25.6,17.2,30.42,NW,315,0.0,0.0,70,0.02,CLR,,0.07,WeatherDisplay:10.37,2013-03-06 22:39:00,
2013-03-06 16:44:00,25.7,17.6,30.42,NW,315,0.0,0.0,71,0.02,CLR,,0.07,WeatherDisplay:10.37,2013-03-06 22:44:00,
2013-03-06 16:49:00,25.8,17.4,30.42,NW,315,0.0,0.0,70,0.01,CLR,,0.07,WeatherDisplay:10.37,2013-03-06 22:49:00,
2013-03-06 16:54:00,25.9,17.5,30.42,NW,315,0.0,0.0,70,0.01,CLR,,0.07,WeatherDisplay:10.37,2013-03-06 22:54:00,
2013-03-06 16:59:00,26.2,17.7,30.42,NW,309,3.5,3.5,70,0.00,CLR,,0.07,WeatherDisplay:10.37,2013-03-06 22:59:00,
2013-03-06 17:04:00,26.5,17.7,30.42,NW,304,4.6,4.6,69,0.00,CLR,,0.07,WeatherDisplay:10.37,2013-03-06 23:04:00,
2013-03-06 17:18:00,26.1,17.3,30.42,WSW,257,4.6,4.6,69,0.00,RA,,0.07,WeatherDisplay:10.37,2013-03-06 23:18:00,
2013-03-06 17:23:00,25.7,16.9,30.42,WSW,250,4.0,4.0,69,0.00,RA,,0.07,WeatherDisplay:10.37,2013-03-06 23:23:00,
2013-03-06 17:28:00,25.5,17.1,30.42,WNW,286,2.3,2.3,70,0.00,CLR,,0.07,WeatherDisplay:10.37,2013-03-06 23:28:00,
2013-03-06 17:33:00,25.3,16.9,30.42,West,280,3.5,3.5,70,0.00,CLR,,0.07,WeatherDisplay:10.37,2013-03-06 23:33:00,
2013-03-06 17:38:00,25.1,17.0,30.42,WNW,288,6.9,6.9,71,0.00,CLR,,0.07,WeatherDisplay:10.37,2013-03-06 23:38:00,
2013-03-06 17:43:00,24.8,17.1,30.42,West,280,2.3,2.3,72,0.00,CLR,,0.07,WeatherDisplay:10.37,2013-03-06 23:43:00,
2013-03-06 17:48:00,24.7,17.3,30.42,West,265,4.6,4.6,73,0.00,CLR,,0.07,WeatherDisplay:10.37,2013-03-06 23:48:00,
2013-03-06 17:53:00,24.5,17.1,30.42,West,259,5.0,5.0,73,0.00,CLR,,0.07,WeatherDisplay:10.37,2013-03-06 23:53:00,
2013-03-06 17:58:00,24.2,16.8,30.42,West,271,9.2,9.2,73,0.00,CLR,,0.07,WeatherDisplay:10.37,2013-03-06 23:58:00,
2013-03-06 18:03:00,24.1,17.0,30.42,West,260,2.3,2.3,74,0.00,CLR,,0.07,WeatherDisplay:10.37,2013-03-07 00:03:00,
2013-03-06 18:08:00,24.0,16.9,30.42,West,267,3.5,3.5,74,0.00,CLR,,0.07,WeatherDisplay:10.37,2013-03-07 00:08:00,
2013-03-06 18:13:00,23.8,16.7,30.42,WNW,284,9.2,9.2,74,0.00,CLR,,0.07,WeatherDisplay:10.37,2013-03-07 00:13:00,
2013-03-06 18:18:00,23.7,16.9,30.42,WNW,301,4.6,4.6,75,0.00,CLR,,0.07,WeatherDisplay:10.37,2013-03-07 00:18:00,
2013-03-06 18:24:00,23.6,16.5,30.42,WNW,293,4.6,4.6,74,0.00,CLR,,0.07,WeatherDisplay:10.37,2013-03-07 00:24:00,
2013-03-06 18:29:00,23.6,16.8,30.42,West,279,0.0,0.0,75,0.00,CLR,,0.07,WeatherDisplay:10.37,2013-03-07 00:29:00,
2013-03-06 18:34:00,23.4,16.6,30.42,WNW,291,3.5,3.5,75,0.00,CLR,,0.07,WeatherDisplay:10.37,2013-03-07 00:34:00,
2013-03-06 18:39:00,23.3,16.5,30.42,WNW,282,3.5,3.5,75,0.00,CLR,,0.07,WeatherDisplay:10.37,2013-03-07 00:39:00,
2013-03-06 18:44:00,23.2,16.4,30.42,WSW,253,4.6,4.6,75,0.00,CLR,,0.07,WeatherDisplay:10.37,2013-03-07 00:44:00,
2013-03-06 18:49:00,23.1,16.4,30.42,West,265,5.8,5.8,75,0.00,CLR,,0.07,WeatherDisplay:10.37,2013-03-07 00:49:00,
2013-03-06 18:54:00,23.1,16.4,30.42,WSW,249,5.8,5.8,75,0.00,CLR,,0.07,WeatherDisplay:10.37,2013-03-07 00:54:00,
2013-03-06 18:59:00,23.0,16.3,30.42,West,279,3.5,3.5,75,0.00,CLR,,0.07,WeatherDisplay:10.37,2013-03-07 00:59:00,
2013-03-06 19:04:00,22.9,16.2,30.42,WNW,288,0.0,0.0,75,0.00,CLR,,0.07,WeatherDisplay:10.37,2013-03-07 01:04:00,
2013-03-06 19:09:00,22.8,16.4,30.42,WNW,288,2.3,2.3,76,0.00,CLR,,0.07,WeatherDisplay:10.37,2013-03-07 01:09:00,
2013-03-06 19:14:00,22.6,16.2,30.42,WNW,284,3.5,3.5,76,0.00,CLR,,0.07,WeatherDisplay:10.37,2013-03-07 01:14:00,
2013-03-06 19:19:00,22.5,16.1,30.42,WNW,284,0.0,0.0,76,0.00,CLR,,0.07,WeatherDisplay:10.37,2013-03-07 01:19:00,
2013-03-06 19:24:00,22.4,16.0,30.42,WNW,284,3.5,3.5,76,0.00,CLR,,0.07,WeatherDisplay:10.37,2013-03-07 01:24:00,
2013-03-06 19:29:00,22.2,16.1,30.42,WNW,284,3.5,3.5,77,0.00,CLR,,0.07,WeatherDisplay:10.37,2013-03-07 01:29:00,
2013-03-06 19:34:00,22.1,15.7,30.42,WNW,289,4.6,4.6,76,0.00,CLR,,0.07,WeatherDisplay:10.37,2013-03-07 01:34:00,
2013-03-06 19:39:00,22.0,15.9,30.42,West,280,1.0,1.0,77,0.00,CLR,,0.07,WeatherDisplay:10.37,2013-03-07 01:39:00,
2013-03-06 19:44:00,21.9,15.8,30.42,West,262,4.6,4.6,77,0.00,CLR,,0.07,WeatherDisplay:10.37,2013-03-07 01:44:00,
2013-03-06 19:49:00,21.8,15.7,30.43,West,273,0.0,0.0,77,0.00,CLR,,0.07,WeatherDisplay:10.37,2013-03-07 01:49:00,
2013-03-06 19:54:00,21.7,15.6,30.42,WNW,288,0.0,0.0,77,0.00,CLR,,0.07,WeatherDisplay:10.37,2013-03-07 01:54:00,
2013-03-06 19:59:00,21.5,15.4,30.42,WNW,286,0.0,0.0,77,0.00,CLR,,0.07,WeatherDisplay:10.37,2013-03-07 01:59:00,
2013-03-06 20:04:00,21.2,15.1,30.42,WNW,286,0.0,0.0,77,0.00,CLR,,0.07,WeatherDisplay:10.37,2013-03-07 02:04:00,
2013-03-06 20:09:00,21.0,14.9,30.42,WNW,286,0.0,0.0,77,0.00,CLR,,0.07,WeatherDisplay:10.37,2013-03-07 02:09:00,
2013-03-06 20:14:00,20.8,15.0,30.42,WNW,286,0.0,0.0,78,0.00,CLR,,0.07,WeatherDisplay:10.37,2013-03-07 02:14:00,
2013-03-06 20:19:00,20.6,14.8,30.42,WNW,286,0.0,0.0,78,0.00,CLR,,0.07,WeatherDisplay:10.37,2013-03-07 02:19:00,
2013-03-06 20:24:00,20.4,14.6,30.42,WNW,286,0.0,0.0,78,0.00,CLR,,0.07,WeatherDisplay:10.37,2013-03-07 02:24:00,
2013-03-06 20:29:00,20.2,14.4,30.42,WNW,286,0.0,0.0,78,0.00,CLR,,0.07,WeatherDisplay:10.37,2013-03-07 02:29:00,
2013-03-06 20:34:00,20.0,14.5,30.42,WNW,286,0.0,0.0,79,0.00,CLR,,0.07,WeatherDisplay:10.37,2013-03-07 02:34:00,
2013-03-06 20:39:00,19.8,14.3,30.42,WNW,286,0.0,0.0,79,0.00,CLR,,0.07,WeatherDisplay:10.37,2013-03-07 02:39:00,
2013-03-06 20:44:00,19.7,14.2,30.42,WNW,286,0.0,0.0,79,0.00,CLR,,0.07,WeatherDisplay:10.37,2013-03-07 02:44:00,
2013-03-06 20:49:00,19.7,14.2,30.42,WNW,286,0.0,0.0,79,0.00,CLR,,0.07,WeatherDisplay:10.37,2013-03-07 02:49:00,
2013-03-06 20:54:00,19.4,13.9,30.42,WNW,286,0.0,0.0,79,0.00,CLR,,0.07,WeatherDisplay:10.37,2013-03-07 02:54:00,
2013-03-06 20:59:00,19.1,13.9,30.42,WNW,286,0.0,0.0,80,0.00,CLR,,0.07,WeatherDisplay:10.37,2013-03-07 02:59:00,
2013-03-06 21:04:00,19.1,14.2,30.42,WNW,286,0.0,0.0,81,0.00,CLR,,0.07,WeatherDisplay:10.37,2013-03-07 03:04:00,
2013-03-06 21:09:00,19.0,14.1,30.42,WNW,286,0.0,0.0,81,0.00,CLR,,0.07,WeatherDisplay:10.37,2013-03-07 03:09:00,
2013-03-06 21:14:00,18.8,13.9,30.42,WNW,286,0.0,0.0,81,0.00,CLR,,0.07,WeatherDisplay:10.37,2013-03-07 03:14:00,
2013-03-06 21:19:00,18.5,13.6,30.42,WNW,286,0.0,0.0,81,0.00,CLR,,0.07,WeatherDisplay:10.37,2013-03-07 03:19:00,
2013-03-06 21:24:00,18.3,13.4,30.42,WNW,286,0.0,0.0,81,0.00,CLR,,0.07,WeatherDisplay:10.37,2013-03-07 03:24:00,
2013-03-06 21:29:00,18.1,13.5,30.42,WNW,286,0.0,0.0,82,0.00,CLR,,0.07,WeatherDisplay:10.37,2013-03-07 03:29:00,
2013-03-06 21:34:00,18.0,13.4,30.42,WNW,286,0.0,0.0,82,0.00,CLR,,0.07,WeatherDisplay:10.37,2013-03-07 03:34:00,
2013-03-06 21:39:00,18.1,13.8,30.43,WNW,286,0.0,0.0,83,0.00,CLR,,0.07,WeatherDisplay:10.37,2013-03-07 03:39:00,
2013-03-06 21:44:00,18.2,13.9,30.43,WNW,286,0.0,0.0,83,0.00,CLR,,0.07,WeatherDisplay:10.37,2013-03-07 03:44:00,
2013-03-06 21:49:00,18.2,13.9,30.43,WNW,286,0.0,0.0,83,0.00,CLR,,0.07,WeatherDisplay:10.37,2013-03-07 03:49:00,
2013-03-06 21:54:00,18.1,13.8,30.43,WNW,286,0.0,0.0,83,0.00,CLR,,0.07,WeatherDisplay:10.37,2013-03-07 03:54:00,
2013-03-06 21:59:00,17.9,13.3,30.43,WNW,286,0.0,0.0,82,0.00,CLR,,0.07,WeatherDisplay:10.37,2013-03-07 03:59:00,
2013-03-06 22:04:00,17.7,13.4,30.43,WNW,286,0.0,0.0,83,0.00,CLR,,0.07,WeatherDisplay:10.37,2013-03-07 04:04:00,
2013-03-06 22:09:00,18.0,14.0,30.43,WNW,286,0.0,0.0,84,0.00,CLR,,0.07,WeatherDisplay:10.37,2013-03-07 04:09:00,
2013-03-06 22:14:00,18.0,14.0,30.43,WNW,286,0.0,0.0,84,0.00,CLR,,0.07,WeatherDisplay:10.37,2013-03-07 04:14:00,
2013-03-06 22:19:00,17.2,12.9,30.43,WNW,286,0.0,0.0,83,0.00,CLR,,0.07,WeatherDisplay:10.37,2013-03-07 04:19:00,
2013-03-06 22:24:00,16.8,12.8,30.43,WNW,286,0.0,0.0,84,0.00,CLR,,0.07,WeatherDisplay:10.37,2013-03-07 04:24:00,
2013-03-06 22:29:00,17.1,13.4,30.43,WNW,286,0.0,0.0,85,0.00,CLR,,0.07,WeatherDisplay:10.37,2013-03-07 04:29:00,
2013-03-06 22:34:00,17.1,13.4,30.43,WNW,286,0.0,0.0,85,0.00,CLR,,0.07,WeatherDisplay:10.37,2013-03-07 04:34:00,
2013-03-06 22:39:00,17.2,13.5,30.43,WNW,286,0.0,0.0,85,0.00,CLR,,0.07,WeatherDisplay:10.37,2013-03-07 04:39:00,
2013-03-06 22:45:00,17.0,13.3,30.43,WNW,286,0.0,0.0,85,0.00,CLR,,0.07,WeatherDisplay:10.37,2013-03-07 04:45:00,
2013-03-06 22:50:00,16.9,13.2,30.43,WNW,286,0.0,0.0,85,0.00,CLR,,0.07,WeatherDisplay:10.37,2013-03-07 04:50:00,
2013-03-06 22:55:00,16.8,13.1,30.44,WNW,286,0.0,0.0,85,0.00,CLR,,0.07,WeatherDisplay:10.37,2013-03-07 04:55:00,
2013-03-06 23:00:00,16.7,13.2,30.44,WNW,286,0.0,0.0,86,0.00,CLR,,0.07,WeatherDisplay:10.37,2013-03-07 05:00:00,
2013-03-06 23:05:00,16.5,12.8,30.44,WNW,286,0.0,0.0,85,0.00,CLR,,0.07,WeatherDisplay:10.37,2013-03-07 05:05:00,
2013-03-06 23:10:00,16.2,12.5,30.44,WNW,286,0.0,0.0,85,0.00,CLR,,0.07,WeatherDisplay:10.37,2013-03-07 05:10:00,
2013-03-06 23:15:00,15.8,12.1,30.44,WNW,286,0.0,0.0,85,0.00,CLR,,0.07,WeatherDisplay:10.37,2013-03-07 05:15:00,
2013-03-06 23:20:00,15.7,12.3,30.44,WNW,286,0.0,0.0,86,0.00,CLR,,0.07,WeatherDisplay:10.37,2013-03-07 05:20:00,
2013-03-06 23:25:00,15.6,12.2,30.44,WNW,286,0.0,0.0,86,0.00,CLR,,0.07,WeatherDisplay:10.37,2013-03-07 05:25:00,
2013-03-06 23:30:00,15.5,12.1,30.44,WNW,286,0.0,0.0,86,0.00,CLR,,0.07,WeatherDisplay:10.37,2013-03-07 05:30:00,
2013-03-06 23:35:00,15.5,12.1,30.44,WNW,286,0.0,0.0,86,0.00,CLR,,0.07,WeatherDisplay:10.37,2013-03-07 05:35:00,
2013-03-06 23:40:00,15.4,12.0,30.44,WNW,286,0.0,0.0,86,0.00,CLR,,0.07,WeatherDisplay:10.37,2013-03-07 05:40:00,
2013-03-06 23:45:00,15.4,12.0,30.44,WNW,286,0.0,0.0,86,0.00,CLR,,0.07,WeatherDisplay:10.37,2013-03-07 05:45:00,
2013-03-06 23:50:00,15.4,12.2,30.44,WNW,286,0.0,0.0,87,0.00,CLR,,0.07,WeatherDisplay:10.37,2013-03-07 05:50:00,
2013-03-06 23:55:00,15.3,11.9,30.44,WNW,286,0.0,0.0,86,0.00,CLR,,0.07,WeatherDisplay:10.37,2013-03-07 05:55:00,